world map with OXB marked

OXB - Airport

This information may not be accurate or current and is not valid for navigation or flight planning. No warranty of fitness for any purpose is made or implied.

flag of Guinea-Bissau

Donate via PayPal

Additional information is available on the NEW Great Circle Mapper

Location
City:  Bissau, Guinea-Bissau
Name:Oswaldo Vieira International Airport
ICAO / IATA:GGOV / OXB

Details
Type:Airport (Aerodrome, Airfield)
Use:Public/Civil, Military
Latitude:11°53'41"N (11.894850)
Longitude:15°39'13"W (-15.653680)
Datum:WGS 1984
Elevation:129 ft (39 m)
Runways:1
Longest:10499 × 148 ft (3200 × 45 m)

Time
Timezone:UTC+0 (DST+2)
Local Time:

Weather
METAR:GGOV  241700Z 22008KT CAVOK 35/18 Q1008 NOSIG
TAF:GGOV  241700Z 2418/2518 33003KT CAVOK= TAF LLET 241704Z 2418/2518 36010KT CAVOK TEMPO 2418/2420 VRB04KT PROB30 2502/2512 VRB15G25KT 7000 VCTS SCT040 FEW080CB PROB40 2512/2518 VRB15G25KT 6000 TSRA SCT040 FEW070CB BKN080 TX29/2512Z TN18/2503Z

Related Locations
Nearby:
Farthest:SCZ: 12313 mi / 19816 km
Santa Cruz/Graciosa Bay/Luova, Santa Cruz Island, SB

Find:

   beyond  
but within

Other Information
Maps:
Sources:

  


 


Great Circle Mapper   Great Circle Mapper
Great Circle Mapper FAQ   Great Circle Mapper FAQ
  Karl's Home Page
KLSē   KLSē Home
   GC on Facebook
Airlines of the World   Airlines of the World
Donate via PayPal


Copyright © 2004-2017, Karl L. Swartz. All rights reserved.
All trademarks mentioned herein belong to their respective owners.

Please see credits for attribution and copyright information.

Karl Swartz <karl@kls2.com>
  Powered by FreeBSD
Valid HTML 4.01!
Labeled with ICRA
hCard Microformat
Geo Microformat